sensor_id;sensor_type;location;lat;lon;timestamp;temperature;humidity
26164;DHT22;13914;48.178;11.716;2023-01-29T00:00:08;0.50;99.90
26164;DHT22;13914;48.178;11.716;2023-01-29T00:02:36;0.50;99.90
26164;DHT22;13914;48.178;11.716;2023-01-29T00:05:03;0.40;99.90
26164;DHT22;13914;48.178;11.716;2023-01-29T00:07:30;0.50;99.90
26164;DHT22;13914;48.178;11.716;2023-01-29T00:09:56;0.40;99.90
26164;DHT22;13914;48.178;11.716;2023-01-29T00:12:21;0.40;99.90
26164;DHT22;13914;48.178;11.716;2023-01-29T00:14:47;0.40;99.90
26164;DHT22;13914;48.178;11.716;2023-01-29T00:17:13;0.40;99.90
26164;DHT22;13914;48.178;11.716;2023-01-29T00:19:39;0.50;99.90
26164;DHT22;13914;48.178;11.716;2023-01-29T00:22:04;0.40;99.90
26164;DHT22;13914;48.178;11.716;2023-01-29T00:24:30;0.40;99.90
26164;DHT22;13914;48.178;11.716;2023-01-29T00:26:55;0.40;99.90
26164;DHT22;13914;48.178;11.716;2023-01-29T00:29:21;0.40;99.90
26164;DHT22;13914;48.178;11.716;2023-01-29T00:31:47;0.40;99.90
26164;DHT22;13914;48.178;11.716;2023-01-29T00:34:12;0.40;99.90
26164;DHT22;13914;48.178;11.716;2023-01-29T00:36:38;0.40;99.90
26164;DHT22;13914;48.178;11.716;2023-01-29T00:39:04;0.40;99.90
26164;DHT22;13914;48.178;11.716;2023-01-29T00:41:35;0.40;99.90
26164;DHT22;13914;48.178;11.716;2023-01-29T00:44:19;0.40;99.90
26164;DHT22;13914;48.178;11.716;2023-01-29T00:47:03;0.40;99.90
26164;DHT22;13914;48.178;11.716;2023-01-29T00:49:49;0.40;99.90
26164;DHT22;13914;48.178;11.716;2023-01-29T00:52:15;0.30;99.90
26164;DHT22;13914;48.178;11.716;2023-01-29T00:54:50;0.30;99.90
26164;DHT22;13914;48.178;11.716;2023-01-29T00:57:23;0.30;99.90
26164;DHT22;13914;48.178;11.716;2023-01-29T00:59:51;0.30;99.90
26164;DHT22;13914;48.178;11.716;2023-01-29T01:02:16;0.30;99.90
26164;DHT22;13914;48.178;11.716;2023-01-29T01:05:01;0.30;99.90
26164;DHT22;13914;48.178;11.716;2023-01-29T01:07:28;0.30;99.90
26164;DHT22;13914;48.178;11.716;2023-01-29T01:09:54;0.30;99.90
26164;DHT22;13914;48.178;11.716;2023-01-29T01:12:38;0.40;99.90
26164;DHT22;13914;48.178;11.716;2023-01-29T01:15:04;0.30;99.90
26164;DHT22;13914;48.178;11.716;2023-01-29T01:17:30;0.30;99.90
26164;DHT22;13914;48.178;11.716;2023-01-29T01:19:55;0.30;99.90
26164;DHT22;13914;48.178;11.716;2023-01-29T01:22:21;0.30;99.90
26164;DHT22;13914;48.178;11.716;2023-01-29T01:24:47;0.30;99.90
26164;DHT22;13914;48.178;11.716;2023-01-29T01:27:13;0.30;99.90
26164;DHT22;13914;48.178;11.716;2023-01-29T01:29:38;0.30;99.90
26164;DHT22;13914;48.178;11.716;2023-01-29T01:32:05;0.30;99.90
26164;DHT22;13914;48.178;11.716;2023-01-29T01:34:30;0.30;99.90
26164;DHT22;13914;48.178;11.716;2023-01-29T01:36:56;0.30;99.90
26164;DHT22;13914;48.178;11.716;2023-01-29T01:39:22;0.30;99.90
26164;DHT22;13914;48.178;11.716;2023-01-29T01:41:48;0.30;99.90
26164;DHT22;13914;48.178;11.716;2023-01-29T01:47:25;0.30;99.90
26164;DHT22;13914;48.178;11.716;2023-01-29T01:49:54;0.30;99.90
26164;DHT22;13914;48.178;11.716;2023-01-29T01:52:21;0.30;99.90
26164;DHT22;13914;48.178;11.716;2023-01-29T01:54:47;0.20;99.90
26164;DHT22;13914;48.178;11.716;2023-01-29T01:57:15;0.30;99.90
26164;DHT22;13914;48.178;11.716;2023-01-29T01:59:51;0.20;99.90
26164;DHT22;13914;48.178;11.716;2023-01-29T02:02:20;0.20;99.90
26164;DHT22;13914;48.178;11.716;2023-01-29T02:05:05;0.20;99.90
26164;DHT22;13914;48.178;11.716;2023-01-29T02:07:50;0.20;99.90
26164;DHT22;13914;48.178;11.716;2023-01-29T02:10:41;0.20;99.90
26164;DHT22;13914;48.178;11.716;2023-01-29T02:13:09;0.20;99.90
26164;DHT22;13914;48.178;11.716;2023-01-29T02:15:35;0.20;99.90
26164;DHT22;13914;48.178;11.716;2023-01-29T02:18:01;0.20;99.90
26164;DHT22;13914;48.178;11.716;2023-01-29T02:20:28;0.20;99.90
26164;DHT22;13914;48.178;11.716;2023-01-29T02:31:30;0.20;99.90
26164;DHT22;13914;48.178;11.716;2023-01-29T02:36:40;0.20;99.90
26164;DHT22;13914;48.178;11.716;2023-01-29T02:41:41;0.20;99.90
26164;DHT22;13914;48.178;11.716;2023-01-29T02:44:51;0.20;99.90
26164;DHT22;13914;48.178;11.716;2023-01-29T02:47:01;0.20;99.90
26164;DHT22;13914;48.178;11.716;2023-01-29T02:49:34;0.20;99.90
26164;DHT22;13914;48.178;11.716;2023-01-29T02:52:08;0.20;99.90
26164;DHT22;13914;48.178;11.716;2023-01-29T02:54:40;0.20;99.90
26164;DHT22;13914;48.178;11.716;2023-01-29T02:57:21;0.20;99.90
26164;DHT22;13914;48.178;11.716;2023-01-29T02:59:53;0.20;99.90
26164;DHT22;13914;48.178;11.716;2023-01-29T03:02:24;0.20;99.90
26164;DHT22;13914;48.178;11.716;2023-01-29T03:05:05;0.20;99.90
26164;DHT22;13914;48.178;11.716;2023-01-29T03:07:36;0.30;99.90
26164;DHT22;13914;48.178;11.716;2023-01-29T03:10:06;0.20;99.90
26164;DHT22;13914;48.178;11.716;2023-01-29T03:12:42;0.20;99.90
26164;DHT22;13914;48.178;11.716;2023-01-29T03:15:13;0.20;99.90
26164;DHT22;13914;48.178;11.716;2023-01-29T03:20:20;0.20;99.90
26164;DHT22;13914;48.178;11.716;2023-01-29T03:22:51;0.20;99.90
26164;DHT22;13914;48.178;11.716;2023-01-29T03:25:22;0.20;99.90
26164;DHT22;13914;48.178;11.716;2023-01-29T03:28:07;0.20;99.90
26164;DHT22;13914;48.178;11.716;2023-01-29T03:30:53;0.20;99.90
26164;DHT22;13914;48.178;11.716;2023-01-29T03:33:41;0.20;99.90
26164;DHT22;13914;48.178;11.716;2023-01-29T03:36:10;0.20;99.90
26164;DHT22;13914;48.178;11.716;2023-01-29T03:38:39;0.20;99.90
26164;DHT22;13914;48.178;11.716;2023-01-29T03:46:27;0.20;99.90
26164;DHT22;13914;48.178;11.716;2023-01-29T03:49:11;0.20;99.90
26164;DHT22;13914;48.178;11.716;2023-01-29T03:59:20;0.20;99.90
26164;DHT22;13914;48.178;11.716;2023-01-29T04:02:12;0.20;99.90
26164;DHT22;13914;48.178;11.716;2023-01-29T04:04:44;0.20;99.90
26164;DHT22;13914;48.178;11.716;2023-01-29T04:07:18;0.20;99.90
26164;DHT22;13914;48.178;11.716;2023-01-29T04:09:50;0.20;99.90
26164;DHT22;13914;48.178;11.716;2023-01-29T04:12:18;0.20;99.90
26164;DHT22;13914;48.178;11.716;2023-01-29T04:14:45;0.20;99.90
26164;DHT22;13914;48.178;11.716;2023-01-29T04:17:15;0.20;99.90
26164;DHT22;13914;48.178;11.716;2023-01-29T04:19:44;0.20;99.90
26164;DHT22;13914;48.178;11.716;2023-01-29T04:22:14;0.20;99.90
26164;DHT22;13914;48.178;11.716;2023-01-29T04:24:43;0.20;99.90
26164;DHT22;13914;48.178;11.716;2023-01-29T04:27:13;0.20;99.90
26164;DHT22;13914;48.178;11.716;2023-01-29T04:35:28;0.20;99.90
26164;DHT22;13914;48.178;11.716;2023-01-29T04:38:00;0.20;99.90
26164;DHT22;13914;48.178;11.716;2023-01-29T04:46:10;0.20;99.90
26164;DHT22;13914;48.178;11.716;2023-01-29T04:51:16;0.20;99.90
26164;DHT22;13914;48.178;11.716;2023-01-29T04:53:48;0.20;99.90
26164;DHT22;13914;48.178;11.716;2023-01-29T04:56:19;0.20;99.90
26164;DHT22;13914;48.178;11.716;2023-01-29T04:58:52;0.20;99.90
26164;DHT22;13914;48.178;11.716;2023-01-29T05:01:22;0.20;99.90
26164;DHT22;13914;48.178;11.716;2023-01-29T05:03:53;0.20;99.90
26164;DHT22;13914;48.178;11.716;2023-01-29T05:06:20;0.20;99.90
26164;DHT22;13914;48.178;11.716;2023-01-29T05:08:47;0.20;99.90
26164;DHT22;13914;48.178;11.716;2023-01-29T05:11:14;0.20;99.90
26164;DHT22;13914;48.178;11.716;2023-01-29T05:13:39;0.20;99.90
26164;DHT22;13914;48.178;11.716;2023-01-29T05:16:17;0.20;99.90
26164;DHT22;13914;48.178;11.716;2023-01-29T05:18:44;0.20;99.90
26164;DHT22;13914;48.178;11.716;2023-01-29T05:21:10;0.20;99.90
26164;DHT22;13914;48.178;11.716;2023-01-29T05:23:36;0.20;99.90
26164;DHT22;13914;48.178;11.716;2023-01-29T05:26:02;0.20;99.90
26164;DHT22;13914;48.178;11.716;2023-01-29T05:28:28;0.10;99.90
26164;DHT22;13914;48.178;11.716;2023-01-29T05:30:54;0.10;99.90
26164;DHT22;13914;48.178;11.716;2023-01-29T05:35:47;0.10;99.90
26164;DHT22;13914;48.178;11.716;2023-01-29T05:38:13;0.10;99.90
26164;DHT22;13914;48.178;11.716;2023-01-29T05:40:38;0.10;99.90
26164;DHT22;13914;48.178;11.716;2023-01-29T05:43:04;0.10;99.90
26164;DHT22;13914;48.178;11.716;2023-01-29T05:45:31;0.10;99.90
26164;DHT22;13914;48.178;11.716;2023-01-29T05:47:58;0.10;99.90
26164;DHT22;13914;48.178;11.716;2023-01-29T05:50:24;0.10;99.90
26164;DHT22;13914;48.178;11.716;2023-01-29T05:53:00;0.10;99.90
26164;DHT22;13914;48.178;11.716;2023-01-29T05:55:26;0.10;99.90
26164;DHT22;13914;48.178;11.716;2023-01-29T05:57:54;0.10;99.90
26164;DHT22;13914;48.178;11.716;2023-01-29T06:00:20;0.10;99.90
26164;DHT22;13914;48.178;11.716;2023-01-29T06:02:46;0.10;99.90
26164;DHT22;13914;48.178;11.716;2023-01-29T06:05:11;0.10;99.90
26164;DHT22;13914;48.178;11.716;2023-01-29T06:07:37;0.10;99.90
26164;DHT22;13914;48.178;11.716;2023-01-29T06:10:04;0.10;99.90
26164;DHT22;13914;48.178;11.716;2023-01-29T06:12:30;0.10;99.90
26164;DHT22;13914;48.178;11.716;2023-01-29T06:14:56;0.10;99.90
26164;DHT22;13914;48.178;11.716;2023-01-29T06:17:22;0.10;99.90
26164;DHT22;13914;48.178;11.716;2023-01-29T06:19:47;0.10;99.90
26164;DHT22;13914;48.178;11.716;2023-01-29T06:22:13;0.10;99.90
26164;DHT22;13914;48.178;11.716;2023-01-29T06:24:38;0.10;99.90
26164;DHT22;13914;48.178;11.716;2023-01-29T06:27:04;0.00;99.90
26164;DHT22;13914;48.178;11.716;2023-01-29T06:29:30;0.00;99.90
26164;DHT22;13914;48.178;11.716;2023-01-29T06:31:55;0.10;99.90
26164;DHT22;13914;48.178;11.716;2023-01-29T06:34:21;0.10;99.90
26164;DHT22;13914;48.178;11.716;2023-01-29T06:36:47;0.10;99.90
26164;DHT22;13914;48.178;11.716;2023-01-29T06:39:12;0.10;99.90
26164;DHT22;13914;48.178;11.716;2023-01-29T06:41:38;0.10;99.90
26164;DHT22;13914;48.178;11.716;2023-01-29T06:44:04;0.10;99.90
26164;DHT22;13914;48.178;11.716;2023-01-29T06:46:30;0.10;99.90
26164;DHT22;13914;48.178;11.716;2023-01-29T06:48:58;0.00;99.90
26164;DHT22;13914;48.178;11.716;2023-01-29T06:51:25;0.00;99.90
26164;DHT22;13914;48.178;11.716;2023-01-29T06:53:51;0.00;99.90
26164;DHT22;13914;48.178;11.716;2023-01-29T06:56:18;0.10;99.90
26164;DHT22;13914;48.178;11.716;2023-01-29T06:58:44;0.10;99.90
26164;DHT22;13914;48.178;11.716;2023-01-29T07:01:10;0.10;99.90
26164;DHT22;13914;48.178;11.716;2023-01-29T07:03:37;0.00;99.90
26164;DHT22;13914;48.178;11.716;2023-01-29T07:06:03;0.10;99.90
26164;DHT22;13914;48.178;11.716;2023-01-29T07:08:29;0.00;99.90
26164;DHT22;13914;48.178;11.716;2023-01-29T07:10:58;0.10;99.90
26164;DHT22;13914;48.178;11.716;2023-01-29T07:13:25;0.00;99.90
26164;DHT22;13914;48.178;11.716;2023-01-29T07:15:51;0.00;99.90
26164;DHT22;13914;48.178;11.716;2023-01-29T07:18:16;0.00;99.90
26164;DHT22;13914;48.178;11.716;2023-01-29T07:20:42;0.00;99.90
26164;DHT22;13914;48.178;11.716;2023-01-29T07:23:09;0.10;99.90
26164;DHT22;13914;48.178;11.716;2023-01-29T07:25:36;0.10;99.90
26164;DHT22;13914;48.178;11.716;2023-01-29T07:28:02;0.10;99.90
26164;DHT22;13914;48.178;11.716;2023-01-29T07:30:28;0.00;99.90
26164;DHT22;13914;48.178;11.716;2023-01-29T07:32:54;0.10;99.90
26164;DHT22;13914;48.178;11.716;2023-01-29T07:35:19;0.10;99.90
26164;DHT22;13914;48.178;11.716;2023-01-29T07:37:49;0.00;99.90
26164;DHT22;13914;48.178;11.716;2023-01-29T07:40:14;0.10;99.90
26164;DHT22;13914;48.178;11.716;2023-01-29T07:42:40;0.10;99.90
26164;DHT22;13914;48.178;11.716;2023-01-29T07:45:06;0.10;99.90
26164;DHT22;13914;48.178;11.716;2023-01-29T07:47:33;0.10;99.90
26164;DHT22;13914;48.178;11.716;2023-01-29T07:50:01;0.10;99.90
26164;DHT22;13914;48.178;11.716;2023-01-29T07:52:28;0.10;99.90
26164;DHT22;13914;48.178;11.716;2023-01-29T07:54:54;0.10;99.90
26164;DHT22;13914;48.178;11.716;2023-01-29T07:57:20;0.10;99.90
26164;DHT22;13914;48.178;11.716;2023-01-29T07:59:46;0.10;99.90
26164;DHT22;13914;48.178;11.716;2023-01-29T08:02:11;0.10;99.90
26164;DHT22;13914;48.178;11.716;2023-01-29T08:04:37;0.10;99.90
26164;DHT22;13914;48.178;11.716;2023-01-29T08:07:03;0.10;99.90
26164;DHT22;13914;48.178;11.716;2023-01-29T08:09:29;0.10;99.90
26164;DHT22;13914;48.178;11.716;2023-01-29T08:11:55;0.10;99.90
26164;DHT22;13914;48.178;11.716;2023-01-29T08:14:21;0.10;99.90
26164;DHT22;13914;48.178;11.716;2023-01-29T08:16:47;0.10;99.90
26164;DHT22;13914;48.178;11.716;2023-01-29T08:19:13;0.10;99.90
26164;DHT22;13914;48.178;11.716;2023-01-29T08:21:39;0.10;99.90
26164;DHT22;13914;48.178;11.716;2023-01-29T08:24:05;0.10;99.90
26164;DHT22;13914;48.178;11.716;2023-01-29T08:26:31;0.20;99.90
26164;DHT22;13914;48.178;11.716;2023-01-29T08:28:57;0.20;99.90
26164;DHT22;13914;48.178;11.716;2023-01-29T08:31:22;0.20;99.90
26164;DHT22;13914;48.178;11.716;2023-01-29T08:33:48;0.20;99.90
26164;DHT22;13914;48.178;11.716;2023-01-29T08:36:14;0.20;99.90
26164;DHT22;13914;48.178;11.716;2023-01-29T08:38:40;0.20;99.90
26164;DHT22;13914;48.178;11.716;2023-01-29T08:41:06;0.20;99.90
26164;DHT22;13914;48.178;11.716;2023-01-29T08:43:32;0.20;99.90
26164;DHT22;13914;48.178;11.716;2023-01-29T08:46:02;0.20;99.90
26164;DHT22;13914;48.178;11.716;2023-01-29T08:48:28;0.20;99.90
26164;DHT22;13914;48.178;11.716;2023-01-29T08:51:01;0.20;99.90
26164;DHT22;13914;48.178;11.716;2023-01-29T08:53:27;0.20;99.90
26164;DHT22;13914;48.178;11.716;2023-01-29T08:55:53;0.20;99.90
26164;DHT22;13914;48.178;11.716;2023-01-29T08:58:19;0.20;99.90
26164;DHT22;13914;48.178;11.716;2023-01-29T09:00:44;0.30;99.90
26164;DHT22;13914;48.178;11.716;2023-01-29T09:03:10;0.30;99.90
26164;DHT22;13914;48.178;11.716;2023-01-29T09:05:36;0.30;99.90
26164;DHT22;13914;48.178;11.716;2023-01-29T09:08:03;0.30;99.90
26164;DHT22;13914;48.178;11.716;2023-01-29T09:10:33;0.30;99.90
26164;DHT22;13914;48.178;11.716;2023-01-29T09:13:00;0.30;99.90
26164;DHT22;13914;48.178;11.716;2023-01-29T09:15:26;0.30;99.90
26164;DHT22;13914;48.178;11.716;2023-01-29T09:17:52;0.30;99.90
26164;DHT22;13914;48.178;11.716;2023-01-29T09:20:18;0.30;99.90
26164;DHT22;13914;48.178;11.716;2023-01-29T09:22:44;0.30;99.90
26164;DHT22;13914;48.178;11.716;2023-01-29T09:25:10;0.40;99.90
26164;DHT22;13914;48.178;11.716;2023-01-29T09:27:36;0.40;99.90
26164;DHT22;13914;48.178;11.716;2023-01-29T09:30:03;0.40;99.90
26164;DHT22;13914;48.178;11.716;2023-01-29T09:32:29;0.40;99.90
26164;DHT22;13914;48.178;11.716;2023-01-29T09:34:55;0.40;99.90
26164;DHT22;13914;48.178;11.716;2023-01-29T09:37:21;0.40;99.90
26164;DHT22;13914;48.178;11.716;2023-01-29T09:39:48;0.40;99.90
26164;DHT22;13914;48.178;11.716;2023-01-29T09:42:17;0.40;99.90
26164;DHT22;13914;48.178;11.716;2023-01-29T09:47:13;0.50;99.90
26164;DHT22;13914;48.178;11.716;2023-01-29T09:49:42;0.50;99.90
26164;DHT22;13914;48.178;11.716;2023-01-29T09:52:21;0.50;99.90
26164;DHT22;13914;48.178;11.716;2023-01-29T09:55:05;0.50;99.90
26164;DHT22;13914;48.178;11.716;2023-01-29T09:57:33;0.50;99.90
26164;DHT22;13914;48.178;11.716;2023-01-29T10:00:05;0.50;99.90
26164;DHT22;13914;48.178;11.716;2023-01-29T10:05:17;0.50;99.90
26164;DHT22;13914;48.178;11.716;2023-01-29T10:23:49;0.60;99.90
26164;DHT22;13914;48.178;11.716;2023-01-29T10:26:17;0.60;99.90
26164;DHT22;13914;48.178;11.716;2023-01-29T10:28:46;0.60;99.90
26164;DHT22;13914;48.178;11.716;2023-01-29T10:31:18;0.60;99.90
26164;DHT22;13914;48.178;11.716;2023-01-29T10:33:49;0.60;99.90
26164;DHT22;13914;48.178;11.716;2023-01-29T10:36:21;0.60;99.90
26164;DHT22;13914;48.178;11.716;2023-01-29T10:38:51;0.60;99.90
26164;DHT22;13914;48.178;11.716;2023-01-29T10:41:22;0.70;99.90
26164;DHT22;13914;48.178;11.716;2023-01-29T10:49:26;0.70;99.90
26164;DHT22;13914;48.178;11.716;2023-01-29T10:52:18;0.70;99.90
26164;DHT22;13914;48.178;11.716;2023-01-29T10:57:24;0.70;99.90
26164;DHT22;13914;48.178;11.716;2023-01-29T11:00:21;0.70;99.90
26164;DHT22;13914;48.178;11.716;2023-01-29T11:02:48;0.80;99.90
26164;DHT22;13914;48.178;11.716;2023-01-29T11:05:37;0.90;99.90
26164;DHT22;13914;48.178;11.716;2023-01-29T11:08:12;0.80;99.90
26164;DHT22;13914;48.178;11.716;2023-01-29T11:10:43;0.80;99.90
26164;DHT22;13914;48.178;11.716;2023-01-29T11:13:40;0.80;99.90
26164;DHT22;13914;48.178;11.716;2023-01-29T11:16:08;0.90;99.90
26164;DHT22;13914;48.178;11.716;2023-01-29T11:18:50;0.90;99.90
26164;DHT22;13914;48.178;11.716;2023-01-29T11:21:24;0.90;99.90
26164;DHT22;13914;48.178;11.716;2023-01-29T11:24:10;0.90;99.90
26164;DHT22;13914;48.178;11.716;2023-01-29T11:26:39;0.90;99.90
26164;DHT22;13914;48.178;11.716;2023-01-29T11:31:51;0.90;99.90
26164;DHT22;13914;48.178;11.716;2023-01-29T11:34:19;0.90;99.90
26164;DHT22;13914;48.178;11.716;2023-01-29T11:36:48;0.90;99.90
26164;DHT22;13914;48.178;11.716;2023-01-29T11:39:21;0.90;99.90
26164;DHT22;13914;48.178;11.716;2023-01-29T11:44:18;1.00;99.90
26164;DHT22;13914;48.178;11.716;2023-01-29T11:47:11;1.00;99.90
26164;DHT22;13914;48.178;11.716;2023-01-29T11:49:37;1.00;99.90
26164;DHT22;13914;48.178;11.716;2023-01-29T11:52:06;1.00;99.90
26164;DHT22;13914;48.178;11.716;2023-01-29T11:54:36;1.00;99.90
26164;DHT22;13914;48.178;11.716;2023-01-29T11:57:26;1.10;99.90
26164;DHT22;13914;48.178;11.716;2023-01-29T11:59:54;1.10;99.90
26164;DHT22;13914;48.178;11.716;2023-01-29T12:02:24;1.10;99.90
26164;DHT22;13914;48.178;11.716;2023-01-29T12:05:12;1.10;99.90
26164;DHT22;13914;48.178;11.716;2023-01-29T12:07:44;1.10;99.90
26164;DHT22;13914;48.178;11.716;2023-01-29T12:10:29;1.10;99.90
26164;DHT22;13914;48.178;11.716;2023-01-29T12:13:04;1.20;99.90
26164;DHT22;13914;48.178;11.716;2023-01-29T12:15:37;1.20;99.90
26164;DHT22;13914;48.178;11.716;2023-01-29T12:20:57;1.20;99.90
26164;DHT22;13914;48.178;11.716;2023-01-29T12:23:27;1.30;99.90
26164;DHT22;13914;48.178;11.716;2023-01-29T12:25:59;1.30;99.90
26164;DHT22;13914;48.178;11.716;2023-01-29T12:29:04;1.20;99.90
26164;DHT22;13914;48.178;11.716;2023-01-29T12:31:41;1.30;99.90
26164;DHT22;13914;48.178;11.716;2023-01-29T12:37:12;1.30;99.90
26164;DHT22;13914;48.178;11.716;2023-01-29T12:39:43;1.30;99.90
26164;DHT22;13914;48.178;11.716;2023-01-29T12:42:14;1.30;99.90
26164;DHT22;13914;48.178;11.716;2023-01-29T12:44:43;1.30;99.90
26164;DHT22;13914;48.178;11.716;2023-01-29T12:47:23;1.30;99.90
26164;DHT22;13914;48.178;11.716;2023-01-29T12:52:52;1.30;99.90
26164;DHT22;13914;48.178;11.716;2023-01-29T12:55:27;1.30;99.90
26164;DHT22;13914;48.178;11.716;2023-01-29T12:57:55;1.30;99.90
26164;DHT22;13914;48.178;11.716;2023-01-29T13:00:24;1.40;99.90
26164;DHT22;13914;48.178;11.716;2023-01-29T13:03:09;1.40;99.90
26164;DHT22;13914;48.178;11.716;2023-01-29T13:05:45;1.40;99.90
26164;DHT22;13914;48.178;11.716;2023-01-29T13:08:23;1.40;99.90
26164;DHT22;13914;48.178;11.716;2023-01-29T13:10:51;1.40;99.90
26164;DHT22;13914;48.178;11.716;2023-01-29T13:16:18;1.40;99.90
26164;DHT22;13914;48.178;11.716;2023-01-29T13:18:54;1.40;99.90
26164;DHT22;13914;48.178;11.716;2023-01-29T13:21:26;1.50;99.90
26164;DHT22;13914;48.178;11.716;2023-01-29T13:23:56;1.50;99.90
26164;DHT22;13914;48.178;11.716;2023-01-29T13:26:26;1.50;99.90
26164;DHT22;13914;48.178;11.716;2023-01-29T13:28:53;1.50;99.90
26164;DHT22;13914;48.178;11.716;2023-01-29T13:31:29;1.50;99.90
26164;DHT22;13914;48.178;11.716;2023-01-29T13:36:45;1.60;99.90
26164;DHT22;13914;48.178;11.716;2023-01-29T13:41:49;1.50;99.90
26164;DHT22;13914;48.178;11.716;2023-01-29T13:44:20;1.50;99.90
26164;DHT22;13914;48.178;11.716;2023-01-29T13:46:52;1.50;99.90
26164;DHT22;13914;48.178;11.716;2023-01-29T13:49:22;1.50;99.90
26164;DHT22;13914;48.178;11.716;2023-01-29T13:51:55;1.50;99.90
26164;DHT22;13914;48.178;11.716;2023-01-29T13:54:22;1.50;99.90
26164;DHT22;13914;48.178;11.716;2023-01-29T13:59:22;1.50;99.90
26164;DHT22;13914;48.178;11.716;2023-01-29T14:10:00;1.50;99.90
26164;DHT22;13914;48.178;11.716;2023-01-29T14:12:38;1.60;99.90
26164;DHT22;13914;48.178;11.716;2023-01-29T14:15:13;1.50;99.90
26164;DHT22;13914;48.178;11.716;2023-01-29T14:17:52;1.50;99.90
26164;DHT22;13914;48.178;11.716;2023-01-29T14:20:29;1.50;99.90
26164;DHT22;13914;48.178;11.716;2023-01-29T14:22:57;1.50;99.90
26164;DHT22;13914;48.178;11.716;2023-01-29T14:25:27;1.50;99.90
26164;DHT22;13914;48.178;11.716;2023-01-29T14:27:55;1.50;99.90
26164;DHT22;13914;48.178;11.716;2023-01-29T14:30:22;1.50;99.90
26164;DHT22;13914;48.178;11.716;2023-01-29T14:32:48;1.50;99.90
26164;DHT22;13914;48.178;11.716;2023-01-29T14:37:48;1.50;99.90
26164;DHT22;13914;48.178;11.716;2023-01-29T14:45:33;1.40;99.90
26164;DHT22;13914;48.178;11.716;2023-01-29T14:48:03;1.40;99.90
26164;DHT22;13914;48.178;11.716;2023-01-29T14:53:10;1.40;99.90
26164;DHT22;13914;48.178;11.716;2023-01-29T14:55:39;1.40;99.90
26164;DHT22;13914;48.178;11.716;2023-01-29T15:01:33;1.30;99.90
26164;DHT22;13914;48.178;11.716;2023-01-29T15:04:04;1.30;99.90
26164;DHT22;13914;48.178;11.716;2023-01-29T15:06:44;1.30;99.90
26164;DHT22;13914;48.178;11.716;2023-01-29T15:09:12;1.30;99.90
26164;DHT22;13914;48.178;11.716;2023-01-29T15:11:55;1.30;99.90
26164;DHT22;13914;48.178;11.716;2023-01-29T15:14:27;1.30;99.90
26164;DHT22;13914;48.178;11.716;2023-01-29T15:17:01;1.30;99.90
26164;DHT22;13914;48.178;11.716;2023-01-29T15:19:36;1.30;99.90
26164;DHT22;13914;48.178;11.716;2023-01-29T15:22:25;1.30;99.90
26164;DHT22;13914;48.178;11.716;2023-01-29T15:27:46;1.30;99.90
26164;DHT22;13914;48.178;11.716;2023-01-29T15:30:17;1.20;99.90
26164;DHT22;13914;48.178;11.716;2023-01-29T15:32:50;1.20;99.90
26164;DHT22;13914;48.178;11.716;2023-01-29T15:37:59;1.20;99.90
26164;DHT22;13914;48.178;11.716;2023-01-29T15:40:49;1.20;99.90
26164;DHT22;13914;48.178;11.716;2023-01-29T15:43:42;1.20;99.90
26164;DHT22;13914;48.178;11.716;2023-01-29T15:46:31;1.20;99.90
26164;DHT22;13914;48.178;11.716;2023-01-29T15:48:59;1.20;99.90
26164;DHT22;13914;48.178;11.716;2023-01-29T15:51:26;1.20;99.90
26164;DHT22;13914;48.178;11.716;2023-01-29T15:53:59;1.10;99.90
26164;DHT22;13914;48.178;11.716;2023-01-29T15:59:04;1.10;99.90
26164;DHT22;13914;48.178;11.716;2023-01-29T16:01:31;1.10;99.90
26164;DHT22;13914;48.178;11.716;2023-01-29T16:03:57;1.10;99.90
26164;DHT22;13914;48.178;11.716;2023-01-29T16:06:27;1.10;99.90
26164;DHT22;13914;48.178;11.716;2023-01-29T16:08:57;1.10;99.90
26164;DHT22;13914;48.178;11.716;2023-01-29T16:11:24;1.00;99.90
26164;DHT22;13914;48.178;11.716;2023-01-29T16:13:50;1.00;99.90
26164;DHT22;13914;48.178;11.716;2023-01-29T16:16:25;1.00;99.90
26164;DHT22;13914;48.178;11.716;2023-01-29T16:18:52;1.00;99.90
26164;DHT22;13914;48.178;11.716;2023-01-29T16:21:25;1.00;99.90
26164;DHT22;13914;48.178;11.716;2023-01-29T16:23:54;1.00;99.90
26164;DHT22;13914;48.178;11.716;2023-01-29T16:26:25;1.00;99.90
26164;DHT22;13914;48.178;11.716;2023-01-29T16:28:52;0.90;99.90
26164;DHT22;13914;48.178;11.716;2023-01-29T16:31:19;0.90;99.90
26164;DHT22;13914;48.178;11.716;2023-01-29T16:33:50;0.90;99.90
26164;DHT22;13914;48.178;11.716;2023-01-29T16:36:17;0.90;99.90
26164;DHT22;13914;48.178;11.716;2023-01-29T16:38:48;0.90;99.90
26164;DHT22;13914;48.178;11.716;2023-01-29T16:43:49;0.90;99.90
26164;DHT22;13914;48.178;11.716;2023-01-29T16:46:19;1.00;99.90
26164;DHT22;13914;48.178;11.716;2023-01-29T16:48:49;0.90;99.90
26164;DHT22;13914;48.178;11.716;2023-01-29T16:51:35;0.90;99.90
26164;DHT22;13914;48.178;11.716;2023-01-29T16:54:06;0.90;99.90
26164;DHT22;13914;48.178;11.716;2023-01-29T16:56:35;0.90;99.90
26164;DHT22;13914;48.178;11.716;2023-01-29T16:59:02;0.80;99.90
26164;DHT22;13914;48.178;11.716;2023-01-29T17:01:28;0.90;99.90
26164;DHT22;13914;48.178;11.716;2023-01-29T17:04:07;0.80;99.90
26164;DHT22;13914;48.178;11.716;2023-01-29T17:06:35;0.80;99.90
26164;DHT22;13914;48.178;11.716;2023-01-29T17:09:01;0.80;99.90
26164;DHT22;13914;48.178;11.716;2023-01-29T17:11:32;0.80;99.90
26164;DHT22;13914;48.178;11.716;2023-01-29T17:14:02;0.80;99.90
26164;DHT22;13914;48.178;11.716;2023-01-29T17:16:31;0.80;99.90
26164;DHT22;13914;48.178;11.716;2023-01-29T17:18:58;0.80;99.90
26164;DHT22;13914;48.178;11.716;2023-01-29T17:21:24;0.80;99.90
26164;DHT22;13914;48.178;11.716;2023-01-29T17:23:50;0.80;99.90
26164;DHT22;13914;48.178;11.716;2023-01-29T17:26:16;0.80;99.90
26164;DHT22;13914;48.178;11.716;2023-01-29T17:28:43;0.80;99.90
26164;DHT22;13914;48.178;11.716;2023-01-29T17:31:08;0.80;99.90
26164;DHT22;13914;48.178;11.716;2023-01-29T17:33:39;0.80;99.90
26164;DHT22;13914;48.178;11.716;2023-01-29T17:36:12;0.70;99.90
26164;DHT22;13914;48.178;11.716;2023-01-29T17:38:39;0.70;99.90
26164;DHT22;13914;48.178;11.716;2023-01-29T17:41:17;0.70;99.90
26164;DHT22;13914;48.178;11.716;2023-01-29T17:43:46;0.70;99.90
26164;DHT22;13914;48.178;11.716;2023-01-29T17:46:12;0.80;99.90
26164;DHT22;13914;48.178;11.716;2023-01-29T17:48:39;0.80;99.90
26164;DHT22;13914;48.178;11.716;2023-01-29T17:51:05;0.70;99.90
26164;DHT22;13914;48.178;11.716;2023-01-29T17:53:30;0.70;99.90
26164;DHT22;13914;48.178;11.716;2023-01-29T17:55:56;0.70;99.90
26164;DHT22;13914;48.178;11.716;2023-01-29T17:58:23;0.70;99.90
26164;DHT22;13914;48.178;11.716;2023-01-29T18:00:50;0.70;99.90
26164;DHT22;13914;48.178;11.716;2023-01-29T18:03:16;0.70;99.90